createdAt,value
2019-01-13T00:01:59.041Z,120.24
2019-01-13T00:07:54.057Z,85.21
2019-01-13T00:13:49.048Z,64.34
2019-01-13T00:19:44.052Z,135.62
2019-01-13T00:25:39.046Z,43.2
2019-01-13T00:31:34.103Z,42.06
2019-01-13T00:37:29.051Z,32.18
2019-01-13T00:43:24.103Z,56.87
2019-01-13T00:49:19.067Z,31.83
2019-01-13T00:55:14.061Z,28.09
2019-01-13T01:01:09.056Z,29.66
2019-01-13T01:07:04.101Z,42.36
2019-01-13T01:12:59.054Z,37.27
2019-01-13T01:18:54.081Z,28.43
2019-01-13T01:24:49.074Z,26.82
2019-01-13T01:30:44.082Z,30.2
2019-01-13T01:36:39.068Z,25.16
2019-01-13T01:42:34.152Z,22.4
2019-01-13T01:48:29.070Z,23.71
2019-01-13T01:54:24.075Z,22.77
2019-01-13T02:00:19.083Z,22.98
2019-01-13T02:06:14.116Z,53.88
2019-01-13T02:12:09.086Z,58.19
2019-01-13T02:18:04.119Z,66.59
2019-01-13T02:23:59.138Z,90.45
2019-01-13T02:29:54.102Z,78.46
2019-01-13T02:35:49.110Z,40.11
2019-01-13T02:41:44.081Z,39.64
2019-01-13T02:47:39.106Z,30.02
2019-01-13T02:53:34.097Z,47.12
2019-01-13T02:59:29.110Z,48.52
2019-01-13T03:05:24.091Z,39.14
2019-01-13T03:11:19.126Z,44.45
2019-01-13T03:17:14.150Z,43.27
2019-01-13T03:23:09.088Z,36.56
2019-01-13T03:29:04.139Z,49.22
2019-01-13T03:34:59.111Z,51.32
2019-01-13T03:40:54.085Z,36.63
2019-01-13T03:46:49.098Z,47.24
2019-01-13T03:52:52.421Z,59.13
2019-01-13T03:58:39.091Z,50.44
2019-01-13T04:04:34.150Z,62.63
2019-01-13T04:10:29.087Z,68.42
2019-01-13T04:16:24.138Z,46.93
2019-01-13T04:22:19.108Z,49.15
2019-01-13T04:28:14.120Z,40.89
2019-01-13T04:34:09.117Z,44.45
2019-01-13T04:40:04.134Z,45.72
2019-01-13T04:45:59.120Z,69.78
2019-01-13T04:51:54.122Z,57
2019-01-13T04:57:49.121Z,61.29
2019-01-13T05:03:44.134Z,67.91
2019-01-13T05:09:39.097Z,55.58
2019-01-13T05:15:34.120Z,103.03
2019-01-13T05:21:29.116Z,126.06
2019-01-13T05:27:24.152Z,99.44
2019-01-13T05:33:19.135Z,88.71
2019-01-13T05:39:14.125Z,102.31
2019-01-13T05:45:09.133Z,91
2019-01-13T05:51:04.137Z,96.12
2019-01-13T05:56:59.128Z,76.03
2019-01-13T06:02:54.133Z,90.37
2019-01-13T06:08:49.125Z,92.93
2019-01-13T06:14:44.151Z,85.45
2019-01-13T06:20:39.198Z,74.61
2019-01-13T06:26:34.133Z,66.21
2019-01-13T06:32:29.115Z,70.09
2019-01-13T06:38:24.154Z,91.52
2019-01-13T06:44:19.148Z,86.94
2019-01-13T06:50:14.164Z,66.33
2019-01-13T06:56:09.140Z,67.09
2019-01-13T07:02:04.225Z,61.48
2019-01-13T07:07:59.142Z,75.63
2019-01-13T07:13:54.172Z,73.89
2019-01-13T07:19:49.144Z,65.58
2019-01-13T07:25:44.148Z,56.54
2019-01-13T07:31:39.151Z,48.36
2019-01-13T07:37:34.187Z,35.99
2019-01-13T07:43:29.126Z,46.76
2019-01-13T07:49:24.136Z,49.09
2019-01-13T07:55:19.192Z,39.77
2019-01-13T08:01:14.204Z,43.17
2019-01-13T08:07:09.181Z,47.91
2019-01-13T08:13:04.189Z,42.84
2019-01-13T08:18:59.189Z,47.09
2019-01-13T08:24:54.159Z,50.31
2019-01-13T08:30:49.187Z,60.39
2019-01-13T08:36:44.151Z,70.97
2019-01-13T08:42:39.163Z,64.72
2019-01-13T08:48:34.163Z,86.62
2019-01-13T08:54:29.213Z,68.2
2019-01-13T09:00:24.199Z,68.29
2019-01-13T09:06:19.160Z,69.17
2019-01-13T09:12:14.170Z,67.67
2019-01-13T09:18:09.208Z,72.89
2019-01-13T09:24:04.162Z,62.02
2019-01-13T09:29:59.197Z,63.47
2019-01-13T09:35:54.213Z,73.24
2019-01-13T09:41:49.148Z,68.02
2019-01-13T09:47:44.178Z,73.89
2019-01-13T09:53:39.199Z,69.5
2019-01-13T09:59:34.218Z,65.28
2019-01-13T10:05:29.203Z,76.45
2019-01-13T10:11:24.177Z,73.07
2019-01-13T10:17:19.194Z,78.32
2019-01-13T10:23:14.171Z,107.23
2019-01-13T10:29:09.175Z,84.41
2019-01-13T10:35:04.217Z,91.58
2019-01-13T10:40:59.185Z,84.67
2019-01-13T10:46:54.170Z,87.74
2019-01-13T10:52:49.291Z,77.77
2019-01-13T10:58:44.193Z,85.56
2019-01-13T11:04:39.197Z,97.81
2019-01-13T11:10:34.173Z,99.61
2019-01-13T11:16:29.193Z,101.7
2019-01-13T11:22:24.190Z,81.43
2019-01-13T11:28:19.198Z,73.62
2019-01-13T11:34:14.233Z,69.1
2019-01-13T11:40:09.194Z,46.91
2019-01-13T11:46:04.194Z,40.63
2019-01-13T11:51:59.189Z,61.73
2019-01-13T11:57:54.222Z,48.48
2019-01-13T12:03:49.195Z,58.7
2019-01-13T12:09:44.224Z,72.89
2019-01-13T12:15:39.219Z,71.5
2019-01-13T12:21:34.231Z,71.2
2019-01-13T12:27:29.234Z,76.69
2019-01-13T12:33:24.447Z,70.94
2019-01-13T12:39:19.226Z,49.51
2019-01-13T12:45:14.250Z,40.12
2019-01-13T12:51:09.227Z,32.71
2019-01-13T12:57:04.241Z,37.94
2019-01-13T13:02:59.226Z,39.79
2019-01-13T13:08:54.201Z,31.31
2019-01-13T13:14:49.255Z,31.07
2019-01-13T13:20:44.214Z,30.8
2019-01-13T13:26:39.241Z,26.52
2019-01-13T13:32:34.278Z,37.04
2019-01-13T13:38:29.275Z,44.6
2019-01-13T13:44:24.265Z,46.49
2019-01-13T13:50:19.226Z,49.26
2019-01-13T13:56:14.241Z,46.44
2019-01-13T14:02:09.228Z,47.09
2019-01-13T14:08:04.220Z,48.38
2019-01-13T14:13:59.247Z,50.5
2019-01-13T14:19:54.233Z,55.11
2019-01-13T14:25:49.275Z,59.22
2019-01-13T14:31:44.214Z,58.11
2019-01-13T14:37:39.279Z,53.3
2019-01-13T14:43:34.248Z,48.92
2019-01-13T14:49:29.250Z,54.35
2019-01-13T14:55:24.247Z,51.79
2019-01-13T15:01:19.261Z,48.62
2019-01-13T15:07:14.235Z,51.26
2019-01-13T15:13:09.226Z,48.81
2019-01-13T15:19:04.278Z,57.51
2019-01-13T15:24:59.245Z,60.74
2019-01-13T15:30:54.262Z,74.39
2019-01-13T15:36:49.235Z,69.3
2019-01-13T15:42:44.296Z,79.07
2019-01-13T15:48:39.239Z,73.92
2019-01-13T15:54:34.256Z,70.6
2019-01-13T16:00:29.239Z,66.87
2019-01-13T16:06:24.279Z,148.72
2019-01-13T16:12:19.303Z,75.98
2019-01-13T16:18:14.313Z,72.11
2019-01-13T16:24:09.287Z,95.49
2019-01-13T16:30:04.270Z,70.3
2019-01-13T16:35:59.264Z,55.72
2019-01-13T16:41:54.279Z,150.89
2019-01-13T16:47:49.257Z,213.62
2019-01-13T16:53:44.259Z,68.71
2019-01-13T16:59:39.259Z,66.09
2019-01-13T17:05:34.296Z,120.38
2019-01-13T17:11:29.323Z,118.57
2019-01-13T17:17:24.288Z,115.98
2019-01-13T17:23:19.307Z,126.16
2019-01-13T17:29:14.288Z,81.18
2019-01-13T17:35:09.273Z,75.11
2019-01-13T17:41:04.280Z,108.85
2019-01-13T17:46:59.288Z,61.97
2019-01-13T17:52:54.279Z,30.78
2019-01-13T17:58:49.326Z,115.31
2019-01-13T18:04:44.315Z,35.59
2019-01-13T18:10:39.332Z,32.44
2019-01-13T18:16:34.309Z,32.88
2019-01-13T18:22:29.288Z,34.37
2019-01-13T18:28:24.320Z,42.15
2019-01-13T18:34:19.353Z,59.52
2019-01-13T18:40:14.335Z,55.88
2019-01-13T18:46:09.290Z,62.97
2019-01-13T18:52:04.314Z,103.34
2019-01-13T18:57:59.295Z,82.57
2019-01-13T19:03:54.299Z,52.9
2019-01-13T19:09:49.288Z,58.57
2019-01-13T19:15:44.311Z,27.38
2019-01-13T19:21:39.312Z,41.15
2019-01-13T19:27:34.317Z,36.84
2019-01-13T19:33:29.303Z,39.8
2019-01-13T19:39:24.326Z,39.2
2019-01-13T19:45:19.345Z,48.46
2019-01-13T19:51:14.374Z,59.13
2019-01-13T19:57:09.359Z,50.13
2019-01-13T20:03:04.329Z,38.4
2019-01-13T20:08:59.311Z,32.5
2019-01-13T20:14:54.319Z,27.57
2019-01-13T20:20:49.322Z,29.55
2019-01-13T20:26:44.349Z,37.17
2019-01-13T20:32:39.356Z,35.92
2019-01-13T20:38:34.597Z,26.41
2019-01-13T20:44:29.395Z,33.48
2019-01-13T20:50:24.323Z,20.68
2019-01-13T20:56:19.321Z,32.1
2019-01-13T21:02:14.329Z,23.55
2019-01-13T21:08:09.346Z,24.8
2019-01-13T21:14:04.332Z,33.1
2019-01-13T21:19:59.340Z,30.61
2019-01-13T21:25:54.316Z,56.79
2019-01-13T21:31:49.325Z,62.2
2019-01-13T21:37:44.338Z,52.32
2019-01-13T21:43:39.338Z,49.23
2019-01-13T21:49:34.430Z,32.2
2019-01-13T21:55:29.332Z,30.49
2019-01-13T22:01:24.364Z,43.71
2019-01-13T22:07:19.328Z,38.17
2019-01-13T22:13:14.352Z,48.5
2019-01-13T22:19:09.366Z,51
2019-01-13T22:25:04.329Z,37.52
2019-01-13T22:30:59.358Z,23.74
2019-01-13T22:36:54.347Z,25.69
2019-01-13T22:42:49.357Z,20.73
2019-01-13T22:48:44.341Z,16.67
2019-01-13T22:54:39.376Z,22.38
2019-01-13T23:00:34.395Z,27.49
2019-01-13T23:06:29.358Z,26.81
2019-01-13T23:12:24.350Z,26.92
2019-01-13T23:18:19.344Z,28.15
2019-01-13T23:24:14.391Z,25.76
2019-01-13T23:30:09.367Z,26.67
2019-01-13T23:36:04.348Z,30.42
2019-01-13T23:41:59.392Z,32.26
2019-01-13T23:47:54.374Z,28.18
2019-01-13T23:53:49.413Z,24.38
2019-01-13T23:59:44.366Z,28.5
